Prudhoe Bay, Alaska
Current Conditions -  °F | °C
As of 8:53 AM on Thursday 30 Oct 2014 (Local Time) from PASC Reporting Station
Overcast Overcast  
Wind Chill:   Ceiling: 6000
Heat Index: 18°   Visibility: 10mi
Dew Point: 14°   Wind: 15mph
Humidity: 84%   Direction: 230°SW
Pressure: 29.91"   Gusts: NA
Location:  70.28°N, 148.38°W
Report Text: PASC 301653Z 23013KT 10SM SCT030 OVC060 M08/M10 A2991 RMK AO2 SNE08 SLP131 P0000 T10781100
Loading
Personal Weather Stations






























Interactive Weather Map New forecast layout! Learn more

10-Day Weather Forecast

Advertisements
Track Severe Weather on mobile